createdAt,value
2023-05-14T00:00:41.051Z,95192.69
2023-05-14T00:01:46.520Z,95182.38
2023-05-14T00:02:48.069Z,95185.50
2023-05-14T00:03:49.812Z,95191.56
2023-05-14T00:04:51.277Z,95186.84
2023-05-14T00:05:52.737Z,95188.22
2023-05-14T00:06:56.731Z,95187.88
2023-05-14T00:07:58.242Z,95184.84
2023-05-14T00:08:59.812Z,95185.44
2023-05-14T00:10:03.922Z,95188.59
2023-05-14T00:11:05.407Z,95190.41
2023-05-14T00:12:07.046Z,95186.97
2023-05-14T00:13:08.540Z,95193.88
2023-05-14T00:14:09.995Z,95187.53
2023-05-14T00:15:13.958Z,95187.28
2023-05-14T00:16:16.039Z,95184.41
2023-05-14T00:17:17.633Z,95182.31
2023-05-14T00:18:19.150Z,95180.41
2023-05-14T00:19:20.882Z,95180.72
2023-05-14T00:20:22.574Z,95186.28
2023-05-14T00:21:24.358Z,95180.78
2023-05-14T00:22:26.886Z,95181.81
2023-05-14T00:23:30.596Z,95176.47
2023-05-14T00:24:32.022Z,95173.63
2023-05-14T00:25:33.540Z,95173.41
2023-05-14T00:26:35.032Z,95179.47
2023-05-14T00:27:38.863Z,95176.03
2023-05-14T00:28:40.514Z,95175.00
2023-05-14T00:29:42.010Z,95172.34
2023-05-14T00:30:43.470Z,95169.94
2023-05-14T00:31:47.494Z,95167.28
2023-05-14T00:32:49.183Z,95171.31
2023-05-14T00:33:50.802Z,95168.66
2023-05-14T00:34:52.266Z,95164.72
2023-05-14T00:35:53.713Z,95169.22
2023-05-14T00:36:55.214Z,95167.13
2023-05-14T00:37:56.760Z,95161.28
2023-05-14T00:38:58.279Z,95164.97
2023-05-14T00:39:59.721Z,95161.28
2023-05-14T00:41:01.293Z,95158.59
2023-05-14T00:42:02.811Z,95156.50
2023-05-14T00:43:04.348Z,95162.00
2023-05-14T00:44:06.001Z,95155.94
2023-05-14T00:45:08.164Z,95161.22
2023-05-14T00:46:12.437Z,95157.22
2023-05-14T00:47:14.169Z,95155.06
2023-05-14T00:48:18.191Z,95154.28
2023-05-14T00:49:19.910Z,95164.31
2023-05-14T00:50:24.017Z,95156.50
2023-05-14T00:51:28.180Z,95156.81
2023-05-14T00:52:29.784Z,95153.63
2023-05-14T00:53:31.546Z,95150.16
2023-05-14T00:54:33.094Z,95148.03
2023-05-14T00:55:36.778Z,95146.38
2023-05-14T00:56:38.394Z,95147.16
2023-05-14T00:57:42.771Z,95148.75
2023-05-14T00:58:44.347Z,95149.22
2023-05-14T00:59:48.220Z,95156.56
2023-05-14T01:00:51.905Z,95142.25
2023-05-14T01:01:53.440Z,95152.84
2023-05-14T01:02:55.163Z,95150.69
2023-05-14T01:03:58.039Z,95151.16
2023-05-14T01:04:59.700Z,95153.75
2023-05-14T01:06:13.471Z,95143.94
2023-05-14T01:07:26.098Z,95146.25
2023-05-14T01:08:32.605Z,95144.91
2023-05-14T01:09:43.806Z,95148.81
2023-05-14T01:10:52.771Z,95141.63
2023-05-14T01:11:54.260Z,95138.69
2023-05-14T01:13:05.239Z,95144.44
2023-05-14T01:14:26.944Z,95143.00
2023-05-14T01:15:30.880Z,95142.78
2023-05-14T01:16:33.800Z,95144.59
2023-05-14T01:17:39.046Z,95145.56
2023-05-14T01:18:41.472Z,95149.50
2023-05-14T01:19:43.853Z,95146.88
2023-05-14T01:20:53.626Z,95149.50
2023-05-14T01:21:55.279Z,95147.91
2023-05-14T01:22:56.880Z,95144.72
2023-05-14T01:23:58.380Z,95156.06
2023-05-14T01:25:02.193Z,95145.50
2023-05-14T01:26:06.308Z,95146.88
2023-05-14T01:27:17.407Z,95144.78
2023-05-14T01:28:20.320Z,95154.06
2023-05-14T01:29:22.965Z,95151.97
2023-05-14T01:30:38.128Z,95138.28
2023-05-14T01:31:44.088Z,95141.25
2023-05-14T01:32:48.061Z,95150.78
2023-05-14T01:33:49.929Z,95147.88
2023-05-14T01:34:52.230Z,95144.19
2023-05-14T01:35:58.466Z,95148.69
2023-05-14T01:37:00.696Z,95142.38
2023-05-14T01:38:04.856Z,95138.69
2023-05-14T01:39:09.698Z,95139.47
2023-05-14T01:40:14.472Z,95144.75
2023-05-14T01:41:16.478Z,95138.19
2023-05-14T01:42:18.186Z,95142.44
2023-05-14T01:43:20.442Z,95138.25
2023-05-14T01:44:22.226Z,95142.50
2023-05-14T01:45:24.220Z,95141.47
2023-05-14T01:46:30.887Z,95140.41
2023-05-14T01:47:32.504Z,95140.97
2023-05-14T01:48:34.047Z,95146.25
2023-05-14T01:49:37.193Z,95146.19
2023-05-14T01:50:38.758Z,95144.31
2023-05-14T01:51:40.380Z,95143.53
2023-05-14T01:52:42.371Z,95140.34
2023-05-14T01:53:45.327Z,95138.75
2023-05-14T01:54:49.192Z,95141.94
2023-05-14T01:55:52.799Z,95135.63
2023-05-14T01:56:56.933Z,95136.19
2023-05-14T01:57:58.680Z,95138.81
2023-05-14T01:59:00.278Z,95137.78
2023-05-14T02:00:02.332Z,95144.31
2023-05-14T02:01:04.261Z,95137.22
2023-05-14T02:02:07.993Z,95145.94
2023-05-14T02:03:16.382Z,95137.78
2023-05-14T02:04:21.251Z,95143.59
2023-05-14T02:05:23.843Z,95135.13
2023-05-14T02:06:29.112Z,95137.00
2023-05-14T02:07:30.796Z,95135.69
2023-05-14T02:08:32.373Z,95132.00
2023-05-14T02:09:34.184Z,95138.66
2023-05-14T02:10:35.685Z,95134.41
2023-05-14T02:11:37.168Z,95136.78
2023-05-14T02:12:41.192Z,95139.44
2023-05-14T02:13:42.787Z,95142.06
2023-05-14T02:14:46.530Z,95136.78
2023-05-14T02:15:48.028Z,95139.44
2023-05-14T02:16:50.972Z,95134.72
2023-05-14T02:17:52.498Z,95142.41
2023-05-14T02:18:54.222Z,95143.19
2023-05-14T02:19:55.766Z,95137.91
2023-05-14T02:20:57.894Z,95146.38
2023-05-14T02:22:00.355Z,95139.50
2023-05-14T02:23:02.116Z,95139.50
2023-05-14T02:24:03.928Z,95137.91
2023-05-14T02:25:05.664Z,95140.31
2023-05-14T02:26:08.442Z,95135.81
2023-05-14T02:27:09.920Z,95132.13
2023-05-14T02:28:11.556Z,95128.69
2023-05-14T02:29:13.200Z,95128.44
2023-05-14T02:30:14.768Z,95124.75
2023-05-14T02:31:19.032Z,95123.72
2023-05-14T02:32:20.644Z,95127.94
2023-05-14T02:33:22.216Z,95125.88
2023-05-14T02:34:23.983Z,95129.56
2023-05-14T02:35:25.553Z,95129.06
2023-05-14T02:36:26.976Z,95125.38
2023-05-14T02:37:28.652Z,95126.97
2023-05-14T02:38:30.179Z,95126.97
2023-05-14T02:39:31.686Z,95129.88
2023-05-14T02:40:36.593Z,95123.78
2023-05-14T02:41:38.059Z,95123.00
2023-05-14T02:42:40.400Z,95126.19
2023-05-14T02:43:41.912Z,95120.09
2023-05-14T02:44:43.429Z,95126.97
2023-05-14T02:45:45.762Z,95125.94
2023-05-14T02:46:47.538Z,95126.41
2023-05-14T02:47:49.468Z,95126.69
2023-05-14T02:48:54.088Z,95123.78
2023-05-14T02:49:55.715Z,95122.19
2023-05-14T02:50:57.198Z,95125.38
2023-05-14T02:52:00.823Z,95124.81
2023-05-14T02:53:02.430Z,95122.19
2023-05-14T02:54:03.972Z,95124.59
2023-05-14T02:55:08.199Z,95131.22
2023-05-14T02:56:09.853Z,95118.00
2023-05-14T02:57:11.329Z,95124.09
2023-05-14T02:58:15.338Z,95120.63
2023-05-14T02:59:16.937Z,95122.25
2023-05-14T03:00:19.164Z,95116.97
2023-05-14T03:01:23.414Z,95115.91
2023-05-14T03:02:25.361Z,95118.66
2023-05-14T03:03:28.975Z,95105.19
2023-05-14T03:04:31.178Z,95106.56
2023-05-14T03:05:33.224Z,95108.41
2023-05-14T03:06:34.813Z,95115.28
2023-05-14T03:07:38.740Z,95120.31
2023-05-14T03:08:43.261Z,95110.53
2023-05-14T03:09:47.103Z,95111.34
2023-05-14T03:10:48.627Z,95113.50
2023-05-14T03:11:52.752Z,95112.69
2023-05-14T03:12:54.244Z,95107.66
2023-05-14T03:13:55.707Z,95115.28
2023-05-14T03:14:57.288Z,95102.88
2023-05-14T03:15:58.848Z,95107.59
2023-05-14T03:17:00.454Z,95105.19
2023-05-14T03:18:02.269Z,95109.69
2023-05-14T03:19:04.094Z,95103.84
2023-05-14T03:20:06.009Z,95102.81
2023-05-14T03:21:10.152Z,95113.84
2023-05-14T03:22:11.705Z,95099.59
2023-05-14T03:23:13.261Z,95104.88
2023-05-14T03:24:14.829Z,95102.81
2023-05-14T03:25:16.403Z,95104.41
2023-05-14T03:26:17.946Z,95103.91
2023-05-14T03:27:22.008Z,95101.28
2023-05-14T03:28:23.560Z,95102.88
2023-05-14T03:29:25.054Z,95102.63
2023-05-14T03:30:26.851Z,95092.84
2023-05-14T03:31:28.531Z,95099.75
2023-05-14T03:32:31.610Z,95103.13
2023-05-14T03:33:33.801Z,95102.31
2023-05-14T03:34:35.415Z,95094.94
2023-05-14T03:35:36.925Z,95100.25
2023-05-14T03:36:40.830Z,95098.16
2023-05-14T03:37:42.352Z,95098.16
2023-05-14T03:38:43.854Z,95106.63
2023-05-14T03:39:45.470Z,95106.63
2023-05-14T03:40:49.906Z,95096.84
2023-05-14T03:41:51.634Z,95111.41
2023-05-14T03:42:53.331Z,95104.03
2023-05-14T03:43:54.860Z,95108.50
2023-05-14T03:44:56.290Z,95108.78
2023-05-14T03:45:58.213Z,95102.13
2023-05-14T03:47:00.049Z,95106.63
2023-05-14T03:48:01.659Z,95103.97
2023-05-14T03:49:04.112Z,95108.22
2023-05-14T03:50:06.296Z,95107.16
2023-05-14T03:51:07.732Z,95102.44
2023-05-14T03:52:10.823Z,95106.19
2023-05-14T03:53:12.453Z,95109.38
2023-05-14T03:54:13.964Z,95105.69
2023-05-14T03:55:15.622Z,95108.31
2023-05-14T03:56:17.548Z,95100.41
2023-05-14T03:57:19.121Z,95101.44
2023-05-14T03:58:20.648Z,95109.09
2023-05-14T03:59:22.237Z,95103.03
2023-05-14T04:00:23.837Z,95103.00
2023-05-14T04:01:27.390Z,95104.53
2023-05-14T04:02:29.017Z,95101.88
2023-05-14T04:03:32.925Z,95106.63
2023-05-14T04:04:34.729Z,95109.25
2023-05-14T04:05:37.177Z,95111.09
2023-05-14T04:06:38.953Z,95106.34
2023-05-14T04:07:40.705Z,95110.59
2023-05-14T04:08:42.202Z,95108.22
2023-05-14T04:09:43.926Z,95112.44
2023-05-14T04:10:46.540Z,95113.00
2023-05-14T04:11:48.013Z,95114.84
2023-05-14T04:12:52.194Z,95110.03
2023-05-14T04:13:54.108Z,95106.13
2023-05-14T04:14:56.629Z,95106.63
2023-05-14T04:15:58.156Z,95106.63
2023-05-14T04:17:00.377Z,95108.16
2023-05-14T04:18:02.126Z,95103.13
2023-05-14T04:19:05.640Z,95108.41
2023-05-14T04:20:07.592Z,95107.59
2023-05-14T04:21:09.117Z,95115.75
2023-05-14T04:22:10.728Z,95106.78
2023-05-14T04:23:12.320Z,95107.06
2023-05-14T04:24:13.819Z,95118.72
2023-05-14T04:25:15.437Z,95109.22
2023-05-14T04:26:17.062Z,95110.31
2023-05-14T04:27:21.784Z,95111.66
2023-05-14T04:28:23.398Z,95102.94
2023-05-14T04:29:27.440Z,95111.34
2023-05-14T04:31:28.739Z,95108.78
2023-05-14T04:32:32.350Z,95108.50
2023-05-14T04:33:33.828Z,95113.72
2023-05-14T04:34:35.551Z,95104.75
2023-05-14T04:35:37.270Z,95104.53
2023-05-14T04:36:38.719Z,95114.59
2023-05-14T04:37:40.561Z,95113.56
2023-05-14T04:38:42.078Z,95108.81
2023-05-14T04:39:45.790Z,95110.16
2023-05-14T04:40:49.749Z,95103.81
2023-05-14T04:41:53.652Z,95104.88
2023-05-14T04:42:55.247Z,95105.91
2023-05-14T04:43:57.072Z,95111.19
2023-05-14T04:44:58.706Z,95108.56
2023-05-14T04:46:00.687Z,95116.00
2023-05-14T04:47:02.797Z,95115.19
2023-05-14T04:48:04.767Z,95116.53
2023-05-14T04:49:06.272Z,95107.81
2023-05-14T04:50:09.673Z,95108.88
2023-05-14T04:51:11.300Z,95103.81
2023-05-14T04:52:15.209Z,95110.66
2023-05-14T04:53:16.738Z,95111.19
2023-05-14T04:54:18.362Z,95103.00
2023-05-14T04:55:19.840Z,95107.94
2023-05-14T04:56:21.589Z,95115.38
2023-05-14T04:57:23.273Z,95114.59
2023-05-14T04:58:29.154Z,95112.19
2023-05-14T04:59:33.070Z,95115.38
2023-05-14T05:00:34.823Z,95118.34
2023-05-14T05:01:36.315Z,95115.19
2023-05-14T05:02:37.869Z,95120.00
2023-05-14T05:03:39.475Z,95117.91
2023-05-14T05:04:41.019Z,95118.44
2023-05-14T05:05:44.605Z,95121.88
2023-05-14T05:06:46.157Z,95124.84
2023-05-14T05:07:49.993Z,95112.16
2023-05-14T05:08:51.578Z,95116.91
2023-05-14T05:09:53.158Z,95115.31
2023-05-14T05:10:54.586Z,95116.34
2023-05-14T05:11:58.265Z,95121.38
2023-05-14T05:13:00.562Z,95113.22
2023-05-14T05:14:02.117Z,95121.69
2023-05-14T05:15:03.783Z,95119.00
2023-05-14T05:16:05.632Z,95125.88
2023-05-14T05:17:09.371Z,95123.00
2023-05-14T05:18:10.862Z,95117.22
2023-05-14T05:19:14.576Z,95115.13
2023-05-14T05:20:18.650Z,95127.03
2023-05-14T05:21:20.220Z,95113.81
2023-05-14T05:22:21.844Z,95122.19
2023-05-14T05:23:25.453Z,95118.81
2023-05-14T05:24:26.968Z,95121.19
2023-05-14T05:25:28.435Z,95121.19
2023-05-14T05:26:29.883Z,95118.00
2023-05-14T05:27:31.470Z,95115.91
2023-05-14T05:28:32.965Z,95117.22
2023-05-14T05:29:34.842Z,95120.91
2023-05-14T05:30:36.460Z,95122.00
2023-05-14T05:31:38.122Z,95118.59
2023-05-14T05:32:39.756Z,95117.31
2023-05-14T05:33:41.331Z,95113.63
2023-05-14T05:34:45.681Z,95118.69
2023-05-14T05:35:48.280Z,95120.59
2023-05-14T05:36:52.020Z,95116.13
2023-05-14T05:37:53.608Z,95112.47
2023-05-14T05:38:55.404Z,95124.38
2023-05-14T05:39:56.910Z,95117.31
2023-05-14T05:41:00.662Z,95117.84
2023-05-14T05:42:02.594Z,95120.00
2023-05-14T05:43:04.136Z,95115.78
2023-05-14T05:44:05.792Z,95118.72
2023-05-14T05:45:09.993Z,95112.38
2023-05-14T05:46:12.224Z,95122.75
2023-05-14T05:47:13.772Z,95117.50
2023-05-14T05:48:17.537Z,95119.97
2023-05-14T05:49:18.968Z,95118.66
2023-05-14T05:50:20.863Z,95120.78
2023-05-14T05:51:22.466Z,95120.06
2023-05-14T05:52:24.054Z,95118.72
2023-05-14T05:53:25.724Z,95113.44
2023-05-14T05:54:27.208Z,95120.31
2023-05-14T05:55:28.988Z,95111.91
2023-05-14T05:56:30.775Z,95115.09
2023-05-14T05:57:32.267Z,95117.50
2023-05-14T05:58:33.731Z,95118.31
2023-05-14T05:59:35.248Z,95115.44
2023-05-14T06:00:36.933Z,95121.56
2023-05-14T06:01:43.432Z,95113.84
2023-05-14T06:02:47.287Z,95113.84
2023-05-14T06:03:48.928Z,95117.03
2023-05-14T06:04:53.258Z,95113.66
2023-05-14T06:05:55.017Z,95117.06
2023-05-14T06:06:56.695Z,95120.03
2023-05-14T06:07:58.249Z,95108.91
2023-05-14T06:09:02.496Z,95116.88
2023-05-14T06:10:06.876Z,95120.06
2023-05-14T06:11:08.378Z,95114.00
2023-05-14T06:12:10.061Z,95115.34
2023-05-14T06:13:13.900Z,95112.16
2023-05-14T06:14:20.830Z,95114.56
2023-05-14T06:15:24.893Z,95106.91
2023-05-14T06:16:28.746Z,95109.81
2023-05-14T06:17:32.711Z,95111.16
2023-05-14T06:18:34.479Z,95112.22
2023-05-14T06:19:36.048Z,95109.31
2023-05-14T06:20:41.362Z,95113.28
2023-05-14T06:21:45.368Z,95115.41
2023-05-14T06:22:46.873Z,95113.53
2023-05-14T06:23:48.453Z,95119.03
2023-05-14T06:24:52.177Z,95119.25
2023-05-14T06:25:53.708Z,95111.88
2023-05-14T06:26:55.413Z,95112.94
2023-05-14T06:28:01.227Z,95114.81
2023-05-14T06:29:02.761Z,95111.66
2023-05-14T06:30:04.456Z,95111.16
2023-05-14T06:31:09.151Z,95110.13
2023-05-14T06:32:15.628Z,95117.06
2023-05-14T06:33:19.317Z,95112.22
2023-05-14T06:34:22.092Z,95118.66
2023-05-14T06:35:26.607Z,95113.06
2023-05-14T06:36:28.139Z,95119.03
2023-05-14T06:37:29.967Z,95121.16
2023-05-14T06:38:31.637Z,95115.75
2023-05-14T06:39:33.155Z,95120.38
2023-05-14T06:40:34.779Z,95118.81
2023-05-14T06:41:36.282Z,95114.88
2023-05-14T06:42:38.042Z,95110.09
2023-05-14T06:43:42.103Z,95112.81
2023-05-14T06:44:44.286Z,95118.66
2023-05-14T06:45:48.454Z,95124.81
2023-05-14T06:46:50.026Z,95122.19
2023-05-14T06:47:51.656Z,95121.13
2023-05-14T06:48:53.309Z,95127.25
2023-05-14T06:49:58.643Z,95116.66
2023-05-14T06:51:00.312Z,95119.84
2023-05-14T06:52:01.889Z,95121.97
2023-05-14T06:53:05.726Z,95123.03
2023-05-14T06:54:10.115Z,95121.47
2023-05-14T06:55:11.628Z,95120.97
2023-05-14T06:56:15.315Z,95121.22
2023-05-14T06:57:16.792Z,95112.72
2023-05-14T06:58:18.348Z,95131.00
2023-05-14T06:59:19.932Z,95119.09
2023-05-14T07:00:21.983Z,95111.13
2023-05-14T07:01:23.963Z,95129.41
2023-05-14T07:02:25.584Z,95124.09
2023-05-14T07:03:27.252Z,95126.53
2023-05-14T07:04:28.866Z,95116.19
2023-05-14T07:05:30.606Z,95127.34
2023-05-14T07:06:32.557Z,95128.66
2023-05-14T07:07:34.010Z,95125.22
2023-05-14T07:08:36.153Z,95129.72
2023-05-14T07:09:37.683Z,95128.66
2023-05-14T07:10:39.264Z,95133.72
2023-05-14T07:11:40.840Z,95124.41
2023-05-14T07:12:42.451Z,95127.34
2023-05-14T07:13:44.035Z,95125.75
2023-05-14T07:14:46.549Z,95128.66
2023-05-14T07:15:48.054Z,95127.06
2023-05-14T07:16:49.601Z,95128.94
2023-05-14T07:17:51.323Z,95131.84
2023-05-14T07:18:52.982Z,95126.81
2023-05-14T07:19:55.942Z,95124.16
2023-05-14T07:20:57.566Z,95127.88
2023-05-14T07:21:59.107Z,95130.00
2023-05-14T07:23:00.719Z,95123.88
2023-05-14T07:24:02.352Z,95124.69
2023-05-14T07:25:03.917Z,95124.47
2023-05-14T07:26:05.948Z,95131.09
2023-05-14T07:27:10.175Z,95126.06
2023-05-14T07:28:11.613Z,95123.09
2023-05-14T07:29:13.155Z,95129.50
2023-05-14T07:30:14.872Z,95123.66
2023-05-14T07:31:19.050Z,95129.22
2023-05-14T07:32:20.625Z,95128.69
2023-05-14T07:33:22.493Z,95126.03
2023-05-14T07:34:26.452Z,95134.53
2023-05-14T07:35:27.962Z,95128.94
2023-05-14T07:36:29.557Z,95130.53
2023-05-14T07:37:31.058Z,95123.09
2023-05-14T07:38:32.709Z,95121.50
2023-05-14T07:39:37.589Z,95127.13
2023-05-14T07:40:39.154Z,95122.88
2023-05-14T07:41:40.700Z,95120.47
2023-05-14T07:42:42.266Z,95121.00
2023-05-14T07:43:43.801Z,95115.97
2023-05-14T07:44:46.082Z,95115.13
2023-05-14T07:45:47.601Z,95116.22
2023-05-14T07:46:53.808Z,95118.34
2023-05-14T07:47:55.437Z,95118.34
2023-05-14T07:48:57.014Z,95111.19
2023-05-14T07:49:58.781Z,95118.84
2023-05-14T07:51:02.358Z,95116.47
2023-05-14T07:52:03.980Z,95119.63
2023-05-14T07:53:05.458Z,95110.09
2023-05-14T07:54:07.032Z,95110.38
2023-05-14T07:55:08.788Z,95109.56
2023-05-14T07:56:10.546Z,95111.97
2023-05-14T07:57:14.383Z,95108.78
2023-05-14T07:58:18.263Z,95108.25
2023-05-14T07:59:21.902Z,95110.84
2023-05-14T08:00:23.783Z,95114.31
2023-05-14T08:01:26.338Z,95112.97
2023-05-14T08:02:28.570Z,95110.84
2023-05-14T08:03:35.178Z,95112.44
2023-05-14T08:04:36.965Z,95112.16
2023-05-14T08:05:41.712Z,95117.72
2023-05-14T08:06:43.305Z,95113.75
2023-05-14T08:07:44.930Z,95118.78
2023-05-14T08:08:46.734Z,95116.94
2023-05-14T08:09:48.186Z,95117.44
2023-05-14T08:10:50.924Z,95114.75
2023-05-14T08:11:52.507Z,95119.81
2023-05-14T08:12:53.949Z,95120.34
2023-05-14T08:13:55.670Z,95110.00
2023-05-14T08:14:59.646Z,95115.59
2023-05-14T08:16:01.265Z,95109.47
2023-05-14T08:17:03.437Z,95117.44
2023-05-14T08:18:04.984Z,95112.94
2023-05-14T08:19:06.630Z,95113.50
2023-05-14T08:20:09.026Z,95108.19
2023-05-14T08:21:10.653Z,95109.28
2023-05-14T08:22:12.221Z,95107.69
2023-05-14T08:23:13.799Z,95103.47
2023-05-14T08:24:15.237Z,95103.19
2023-05-14T08:25:18.806Z,95107.97
2023-05-14T08:26:21.723Z,95102.13
2023-05-14T08:27:23.257Z,95113.56
2023-05-14T08:28:24.704Z,95091.50
2023-05-14T08:29:26.254Z,95103.72
2023-05-14T08:30:28.126Z,95102.94
2023-05-14T08:31:30.018Z,95105.06
2023-05-14T08:33:28.560Z,95106.13
2023-05-14T08:34:32.501Z,95108.25
2023-05-14T08:35:34.131Z,95109.84
2023-05-14T08:36:35.806Z,95113.00
2023-05-14T08:37:37.363Z,95103.47
2023-05-14T08:38:38.957Z,95114.06
2023-05-14T08:39:42.552Z,95115.13
2023-05-14T08:40:51.232Z,95120.44
2023-05-14T08:41:53.808Z,95102.16
2023-05-14T08:43:00.647Z,95111.19
2023-05-14T08:44:09.275Z,95106.66
2023-05-14T08:45:18.107Z,95112.50
2023-05-14T08:46:24.318Z,95109.06
2023-05-14T08:47:26.289Z,95106.41
2023-05-14T08:48:33.408Z,95110.63
2023-05-14T08:49:42.736Z,95108.25
2023-05-14T08:50:44.563Z,95103.47
2023-05-14T08:51:49.538Z,95108.22
2023-05-14T08:52:52.030Z,95111.41
2023-05-14T08:54:02.184Z,95107.16
2023-05-14T08:55:05.635Z,95100.75
2023-05-14T08:56:08.495Z,95112.97
2023-05-14T08:57:13.098Z,95102.28
2023-05-14T08:58:17.810Z,95103.59
2023-05-14T08:59:20.103Z,95106.47
2023-05-14T09:00:23.080Z,95101.44
2023-05-14T09:01:25.732Z,95100.59
2023-05-14T09:02:33.741Z,95095.22
2023-05-14T09:03:36.954Z,95096.50
2023-05-14T09:04:39.754Z,95098.09
2023-05-14T09:05:41.595Z,95098.41
2023-05-14T09:06:46.161Z,95098.63
2023-05-14T09:07:48.174Z,95094.66
2023-05-14T09:08:49.973Z,95102.88
2023-05-14T09:09:52.647Z,95094.09
2023-05-14T09:10:59.414Z,95096.75
2023-05-14T09:12:01.632Z,95095.06
2023-05-14T09:13:03.844Z,95094.28
2023-05-14T09:14:05.497Z,95094.00
2023-05-14T09:15:07.346Z,95094.28
2023-05-14T09:16:08.963Z,95087.06
2023-05-14T09:17:12.468Z,95093.19
2023-05-14T09:18:14.140Z,95089.34
2023-05-14T09:19:18.862Z,95093.91
2023-05-14T09:20:21.419Z,95089.03
2023-05-14T09:21:23.397Z,95090.38
2023-05-14T09:22:25.155Z,95082.88
2023-05-14T09:23:26.744Z,95091.47
2023-05-14T09:24:31.605Z,95081.59
2023-05-14T09:25:33.598Z,95083.44
2023-05-14T09:26:35.665Z,95085.53
2023-05-14T09:27:37.972Z,95092.97
2023-05-14T09:28:41.660Z,95086.00
2023-05-14T09:29:47.420Z,95085.00
2023-05-14T09:30:52.200Z,95088.97
2023-05-14T09:31:56.960Z,95091.34
2023-05-14T09:32:58.694Z,95084.22
2023-05-14T09:34:00.635Z,95088.84
2023-05-14T09:35:10.383Z,95081.34
2023-05-14T09:36:14.242Z,95082.13
2023-05-14T09:37:15.770Z,95083.41
2023-05-14T09:38:17.377Z,95073.28
2023-05-14T09:39:19.571Z,95082.44
2023-05-14T09:40:25.619Z,95078.06
2023-05-14T09:41:27.360Z,95077.28
2023-05-14T09:42:28.901Z,95076.97
2023-05-14T09:43:30.524Z,95080.91
2023-05-14T09:44:32.262Z,95080.09
2023-05-14T09:45:35.537Z,95075.66
2023-05-14T09:46:37.314Z,95078.03
2023-05-14T09:47:44.983Z,95080.63
2023-05-14T09:48:47.075Z,95081.41
2023-05-14T09:49:48.766Z,95075.56
2023-05-14T09:50:51.582Z,95079.47
2023-05-14T09:51:53.425Z,95077.03
2023-05-14T09:52:55.551Z,95076.81
2023-05-14T09:54:00.515Z,95071.91
2023-05-14T09:55:02.569Z,95072.38
2023-05-14T09:56:04.440Z,95073.66
2023-05-14T09:57:06.187Z,95068.78
2023-05-14T09:58:07.752Z,95071.28
2023-05-14T09:59:11.600Z,95067.38
2023-05-14T10:00:16.144Z,95067.03
2023-05-14T10:01:20.201Z,95072.28
2023-05-14T10:02:27.404Z,95075.97
2023-05-14T10:03:30.323Z,95077.56
2023-05-14T10:04:34.216Z,95080.09
2023-05-14T10:05:37.187Z,95069.66
2023-05-14T10:06:42.038Z,95071.69
2023-05-14T10:07:49.457Z,95075.88
2023-05-14T10:08:55.144Z,95068.66
2023-05-14T10:10:01.931Z,95076.84
2023-05-14T10:11:10.536Z,95071.47
2023-05-14T10:12:16.559Z,95070.06
2023-05-14T10:13:24.484Z,95070.59
2023-05-14T10:14:49.739Z,95069.88
2023-05-14T10:16:06.119Z,95072.34
2023-05-14T10:17:18.402Z,95072.50
2023-05-14T10:18:23.508Z,95076.72
2023-05-14T10:19:33.216Z,95071.94
2023-05-14T10:20:36.704Z,95074.56
2023-05-14T10:21:41.124Z,95075.28
2023-05-14T10:22:42.886Z,95071.28
2023-05-14T10:23:47.314Z,95071.28
2023-05-14T10:24:52.411Z,95063.78
2023-05-14T10:25:54.099Z,95065.97
2023-05-14T10:26:56.517Z,95066.56
2023-05-14T10:27:58.526Z,95070.03
2023-05-14T10:29:00.340Z,95065.00
2023-05-14T10:30:10.111Z,95068.06
2023-05-14T10:31:13.148Z,95066.56
2023-05-14T10:32:16.410Z,95057.97
2023-05-14T10:33:18.882Z,95059.84
2023-05-14T10:34:41.163Z,95065.47
2023-05-14T10:35:54.965Z,95059.56
2023-05-14T10:37:02.373Z,95058.84
2023-05-14T10:38:08.549Z,95060.88
2023-05-14T10:39:10.140Z,95058.78
2023-05-14T10:40:12.471Z,95055.97
2023-05-14T10:41:17.690Z,95057.78
2023-05-14T10:42:24.254Z,95055.97
2023-05-14T10:43:29.303Z,95054.13
2023-05-14T10:44:35.109Z,95052.47
2023-05-14T10:45:39.926Z,95050.34
2023-05-14T10:46:41.632Z,95052.72
2023-05-14T10:47:44.359Z,95054.78
2023-05-14T10:48:46.190Z,95057.13
2023-05-14T10:49:50.512Z,95055.38
2023-05-14T10:50:55.520Z,95052.78
2023-05-14T10:51:57.265Z,95048.59
2023-05-14T10:52:58.953Z,95049.84
2023-05-14T10:54:01.712Z,95045.50
2023-05-14T10:55:11.882Z,95041.56
2023-05-14T10:56:14.544Z,95044.50
2023-05-14T10:57:17.923Z,95046.00
2023-05-14T10:58:22.124Z,95047.81
2023-05-14T10:59:27.615Z,95048.63
2023-05-14T11:00:29.335Z,95046.59
2023-05-14T11:01:31.862Z,95046.44
2023-05-14T11:02:39.754Z,95047.38
2023-05-14T11:03:45.291Z,95051.44
2023-05-14T11:04:59.319Z,95045.59
2023-05-14T11:06:05.690Z,95045.53
2023-05-14T11:07:08.064Z,95054.59
2023-05-14T11:08:15.773Z,95048.25
2023-05-14T11:09:17.734Z,95053.16
2023-05-14T11:10:21.969Z,95047.59
2023-05-14T11:11:26.103Z,95048.47
2023-05-14T11:12:28.961Z,95048.31
2023-05-14T11:13:30.772Z,95049.59
2023-05-14T11:14:34.769Z,95043.81
2023-05-14T11:15:37.224Z,95038.63
2023-05-14T11:16:39.285Z,95040.31
2023-05-14T11:17:42.429Z,95038.34
2023-05-14T11:18:44.086Z,95035.97
2023-05-14T11:19:45.939Z,95041.88
2023-05-14T11:20:47.739Z,95037.84
2023-05-14T11:21:49.567Z,95033.00
2023-05-14T11:22:54.417Z,95048.47
2023-05-14T11:23:56.820Z,95040.50
2023-05-14T11:25:00.653Z,95044.81
2023-05-14T11:26:04.946Z,95046.53
2023-05-14T11:27:10.508Z,95043.47
2023-05-14T11:28:12.250Z,95046.53
2023-05-14T11:29:13.797Z,95042.69
2023-05-14T11:30:17.586Z,95036.81
2023-05-14T11:31:19.425Z,95041.81
2023-05-14T11:32:21.238Z,95044.63
2023-05-14T11:33:27.812Z,95039.94
2023-05-14T11:34:29.763Z,95043.13
2023-05-14T11:35:31.632Z,95041.91
2023-05-14T11:36:33.255Z,95044.00
2023-05-14T11:37:34.873Z,95039.38
2023-05-14T11:38:49.151Z,95038.25
2023-05-14T11:39:52.410Z,95039.31
2023-05-14T11:40:58.541Z,95034.25
2023-05-14T11:42:03.666Z,95036.41
2023-05-14T11:43:05.464Z,95035.78
2023-05-14T11:44:09.061Z,95030.94
2023-05-14T11:45:24.310Z,95041.84
2023-05-14T11:46:26.242Z,95038.59
2023-05-14T11:47:29.561Z,95037.00
2023-05-14T11:48:32.084Z,95032.47
2023-05-14T11:50:37.702Z,95040.03
2023-05-14T11:51:41.670Z,95037.78
2023-05-14T11:52:43.704Z,95039.19
2023-05-14T11:53:48.480Z,95043.34
2023-05-14T11:54:52.270Z,95036.63
2023-05-14T11:55:55.126Z,95036.94
2023-05-14T11:57:00.112Z,95031.88
2023-05-14T11:58:02.175Z,95032.31
2023-05-14T11:59:03.798Z,95034.06
2023-05-14T12:00:08.132Z,95032.09
2023-05-14T12:01:13.548Z,95029.94
2023-05-14T12:02:18.206Z,95032.22
2023-05-14T12:03:26.298Z,95028.41
2023-05-14T12:04:29.443Z,95025.47
2023-05-14T12:05:31.261Z,95034.22
2023-05-14T12:06:35.352Z,95029.41
2023-05-14T12:07:37.183Z,95030.50
2023-05-14T12:08:38.834Z,95028.78
2023-05-14T12:09:43.638Z,95029.94
2023-05-14T12:10:49.383Z,95023.72
2023-05-14T12:11:52.356Z,95024.94
2023-05-14T12:12:54.446Z,95017.53
2023-05-14T12:13:56.020Z,95023.06
2023-05-14T12:14:59.987Z,95020.78
2023-05-14T12:16:02.653Z,95010.59
2023-05-14T12:17:11.853Z,95017.94
2023-05-14T12:18:23.927Z,95024.47
2023-05-14T12:19:26.652Z,95012.69
2023-05-14T12:20:29.621Z,95014.00
2023-05-14T12:21:31.971Z,95018.16
2023-05-14T12:22:36.398Z,95015.81
2023-05-14T12:23:39.108Z,95013.00